Terminal Aerodrome Forecast
Issued by NWS Northern Indiana

Home | Current Version | Previous Version | Graphics & Text | Print | Product List | Glossary On
Versions: 1 2 3 4 5 6 7 8 9 10 11 12 13 14 15 16
478
FTUS43 KIWX 261738
TAFFWA
TAF
KFWA 261738Z 2618/2718 18009KT 3SM SHRA OVC008
     FM262100 19010KT 3SM SHRA OVC015
     FM270000 19006KT P6SM RA OVC015
     FM270300 23006KT P6SM VCSH OVC015
     FM270500 24007KT 5SM BR OVC003
     FM271700 21006KT P6SM BKN015=

USA.gov is the U.S. government's official web portal to all federal, state and local government web resources and services.